createdAt,value
2019-05-12T00:58:53.426Z,5.10
2019-05-12T01:06:44.864Z,5.20
2019-05-12T02:27:31.957Z,4.20
2019-05-12T02:33:05.454Z,4.10
2019-05-12T03:07:44.690Z,3.90
2019-05-12T05:47:13.750Z,5.10
2019-05-12T05:49:53.881Z,5.20
2019-05-12T05:52:37.367Z,5.30
2019-05-12T06:06:50.413Z,5.90
2019-05-12T06:09:27.569Z,5.90
2019-05-12T06:20:54.109Z,6.40
2019-05-12T06:23:23.908Z,6.60
2019-05-12T06:26:27.246Z,6.80
2019-05-12T06:30:00.627Z,6.90
2019-05-12T09:04:24.691Z,12.90
2019-05-12T10:02:16.522Z,13.80
2019-05-12T12:18:27.515Z,15.30
2019-05-12T13:15:06.391Z,15.10
2019-05-12T13:18:17.903Z,14.70
2019-05-12T14:26:19.823Z,15.20
2019-05-12T14:27:11.328Z,15.00
2019-05-12T14:29:53.737Z,15.40
2019-05-12T14:32:54.346Z,15.60
2019-05-12T14:39:46.236Z,16.20
2019-05-12T14:43:10.208Z,16.20
2019-05-12T14:49:20.175Z,16.20
2019-05-12T14:52:22.567Z,16.30
2019-05-12T14:55:44.568Z,16.40
2019-05-12T14:58:50.152Z,16.30
2019-05-12T15:01:19.198Z,16.20
2019-05-12T15:04:09.524Z,16.10
2019-05-12T15:07:28.781Z,16.00
2019-05-12T15:10:14.968Z,15.90
2019-05-12T15:12:44.380Z,16.00
2019-05-12T15:15:20.582Z,16.20
2019-05-12T15:17:56.635Z,16.30
2019-05-12T15:20:49.799Z,16.10
2019-05-12T15:23:37.637Z,16.00
2019-05-12T15:26:15.828Z,16.20
2019-05-12T15:29:13.287Z,16.40
2019-05-12T15:31:54.164Z,16.40
2019-05-12T15:34:40.298Z,16.30
2019-05-12T15:37:28.943Z,16.40
2019-05-12T15:40:23.675Z,16.50
2019-05-12T15:43:30.075Z,16.40
2019-05-12T15:46:24.557Z,16.30
2019-05-12T15:48:29.066Z,16.10
2019-05-12T15:51:08.442Z,15.90
2019-05-12T15:53:45.073Z,15.80
2019-05-12T15:56:22.729Z,15.70
2019-05-12T15:58:55.690Z,15.60
2019-05-12T16:01:47.408Z,15.40
2019-05-12T16:07:16.475Z,15.30
2019-05-12T16:09:54.790Z,15.10
2019-05-12T16:12:34.341Z,15.00
2019-05-12T16:15:11.427Z,14.90
2019-05-12T16:18:08.126Z,14.80
2019-05-12T16:20:45.805Z,14.70
2019-05-12T16:23:53.484Z,14.70
2019-05-12T16:26:33.747Z,14.70
2019-05-12T16:29:16.159Z,14.80
2019-05-12T16:32:06.957Z,14.80
2019-05-12T16:34:48.822Z,14.80
2019-05-12T16:37:25.524Z,14.80
2019-05-12T16:40:04.485Z,15.00
2019-05-12T16:47:18.803Z,15.20
2019-05-12T16:50:35.948Z,15.30
2019-05-12T16:53:26.937Z,15.20
2019-05-12T16:56:47.998Z,15.40
2019-05-12T17:02:13.812Z,15.60
2019-05-12T17:04:51.317Z,15.70
2019-05-12T17:15:04.108Z,15.30
2019-05-12T17:17:50.786Z,15.20
2019-05-12T17:20:50.913Z,15.30
2019-05-12T17:24:09.475Z,15.20
2019-05-12T17:30:06.464Z,14.80
2019-05-12T17:33:27.842Z,14.60
2019-05-12T17:37:36.771Z,14.40
2019-05-12T17:40:28.792Z,14.40
2019-05-12T17:43:23.159Z,14.40
2019-05-12T17:46:01.324Z,14.40
2019-05-12T17:48:42.475Z,14.50
2019-05-12T17:51:29.117Z,14.50
2019-05-12T17:54:14.687Z,14.60
2019-05-12T17:56:42.676Z,14.80
2019-05-12T17:59:29.316Z,14.70
2019-05-12T18:02:11.457Z,14.70
2019-05-12T18:04:44.468Z,14.60
2019-05-12T18:07:19.068Z,14.40
2019-05-12T18:09:50.429Z,14.30
2019-05-12T18:12:44.469Z,14.20
2019-05-12T18:15:05.125Z,14.10
2019-05-12T18:18:32.396Z,14.00
2019-05-12T18:21:21.208Z,13.90
2019-05-12T18:24:19.165Z,13.70
2019-05-12T18:27:19.666Z,13.50
2019-05-12T18:30:23.800Z,13.50
2019-05-12T18:34:04.955Z,13.40
2019-05-12T18:36:06.523Z,13.30
2019-05-12T18:38:50.008Z,13.20
2019-05-12T18:41:26.501Z,13.10
2019-05-12T18:44:15.242Z,13.00
2019-05-12T18:46:50.323Z,12.90
2019-05-12T18:49:29.391Z,12.90
2019-05-12T18:52:08.156Z,12.80
2019-05-12T18:54:37.209Z,12.70
2019-05-12T18:57:57.912Z,12.60
2019-05-12T19:00:30.532Z,12.60
2019-05-12T19:03:10.147Z,12.50
2019-05-12T19:05:47.317Z,12.50
2019-05-12T19:08:28.488Z,12.40
2019-05-12T19:11:18.947Z,12.30
2019-05-12T19:13:51.512Z,12.20
2019-05-12T19:16:26.266Z,12.10
2019-05-12T19:19:00.873Z,12.10
2019-05-12T19:21:34.889Z,12.10
2019-05-12T19:24:08.839Z,12.20
2019-05-12T19:26:46.413Z,12.20
2019-05-12T19:29:29.738Z,12.20
2019-05-12T19:32:15.550Z,12.20
2019-05-12T19:34:59.282Z,12.10
2019-05-12T19:38:05.981Z,12.10
2019-05-12T19:40:19.974Z,12.00
2019-05-12T19:43:11.147Z,12.00
2019-05-12T19:45:43.486Z,11.90
2019-05-12T19:48:43.017Z,12.00
2019-05-12T19:51:19.567Z,11.90
2019-05-12T19:53:43.875Z,11.80
2019-05-12T19:56:34.715Z,11.80
2019-05-12T19:59:14.826Z,11.70
2019-05-12T20:01:46.373Z,11.60
2019-05-12T20:04:30.835Z,11.60
2019-05-12T20:07:37.435Z,11.50
2019-05-12T20:13:08.745Z,11.20
2019-05-12T20:15:47.286Z,11.20
2019-05-12T20:18:23.416Z,11.10
2019-05-12T20:21:10.293Z,10.90
2019-05-12T20:23:54.553Z,10.80
2019-05-12T20:26:40.168Z,10.80
2019-05-12T20:29:13.643Z,10.90
2019-05-12T20:31:57.745Z,10.90
2019-05-12T20:34:28.684Z,10.80
2019-05-12T20:36:59.051Z,10.80
2019-05-12T20:39:33.642Z,10.70
2019-05-12T20:42:20.311Z,10.60
2019-05-12T20:44:51.292Z,10.50
2019-05-12T20:47:18.332Z,10.40
2019-05-12T20:49:51.173Z,10.40
2019-05-12T20:52:53.494Z,10.30
2019-05-12T20:55:23.423Z,10.20
2019-05-12T20:58:04.558Z,10.00
2019-05-12T21:01:05.945Z,9.90
2019-05-12T21:03:50.909Z,9.80
2019-05-12T21:07:21.175Z,9.60
2019-05-12T21:10:25.308Z,9.60
2019-05-12T21:12:17.598Z,9.50
2019-05-12T21:15:11.359Z,9.40
2019-05-12T21:17:44.117Z,9.30
2019-05-12T21:20:18.730Z,9.30
2019-05-12T21:23:13.671Z,9.20
2019-05-12T21:25:58.411Z,9.40
2019-05-12T21:29:05.411Z,9.30
2019-05-12T21:32:03.034Z,9.30
2019-05-12T21:34:30.025Z,9.10
2019-05-12T21:37:09.585Z,9.10
2019-05-12T21:39:46.102Z,9.00
2019-05-12T21:42:26.728Z,8.90
2019-05-12T21:45:14.320Z,8.80
2019-05-12T21:47:42.861Z,8.70
2019-05-12T21:50:32.193Z,8.60
2019-05-12T21:53:17.614Z,8.60
2019-05-12T21:59:15.501Z,8.40
2019-05-12T22:03:07.391Z,8.30
2019-05-12T22:03:58.082Z,8.30
2019-05-12T22:06:34.129Z,8.30
2019-05-12T22:09:05.597Z,8.30
2019-05-12T22:11:50.643Z,8.20
2019-05-12T22:14:17.754Z,8.10
2019-05-12T22:17:00.269Z,8.10
2019-05-12T22:19:50.239Z,8.00
2019-05-12T22:22:29.654Z,7.90
2019-05-12T22:25:09.661Z,7.80
2019-05-12T22:27:49.579Z,7.70
2019-05-12T22:30:37.380Z,7.60
2019-05-12T22:33:30.337Z,7.60
2019-05-12T22:36:05.541Z,7.60
2019-05-12T22:39:01.017Z,7.50
2019-05-12T22:41:30.438Z,7.40
2019-05-12T22:44:09.553Z,7.40
2019-05-12T22:46:43.551Z,7.30
2019-05-12T22:49:20.994Z,7.20
2019-05-12T22:52:18.079Z,7.20
2019-05-12T22:55:15.359Z,7.10
2019-05-12T22:57:45.677Z,7.00
2019-05-12T23:00:24.200Z,7.00
2019-05-12T23:03:18.281Z,7.00
2019-05-12T23:05:50.629Z,6.90
2019-05-12T23:08:33.404Z,6.90
2019-05-12T23:11:14.363Z,7.00
2019-05-12T23:13:56.640Z,7.00
2019-05-12T23:16:44.915Z,6.90
2019-05-12T23:19:17.731Z,6.70
2019-05-12T23:21:58.813Z,6.70
2019-05-12T23:24:40.939Z,6.60
2019-05-12T23:27:25.243Z,6.70
2019-05-12T23:30:17.764Z,6.50
2019-05-12T23:33:04.059Z,6.40
2019-05-12T23:35:28.275Z,6.40
2019-05-12T23:38:26.226Z,6.30
2019-05-12T23:41:04.065Z,6.30
2019-05-12T23:43:53.639Z,6.20
2019-05-12T23:46:24.711Z,6.20
2019-05-12T23:49:14.615Z,6.10
2019-05-12T23:51:54.214Z,6.10
2019-05-12T23:54:34.516Z,6.00
2019-05-12T23:57:20.500Z,6.00
